createdAt,value
2019-02-18T00:01:52.227Z,100.00
2019-02-18T00:04:59.592Z,100.00
2019-02-18T00:08:15.846Z,100.00
2019-02-18T00:11:32.573Z,100.00
2019-02-18T00:14:40.159Z,100.00
2019-02-18T00:17:47.508Z,100.00
2019-02-18T00:21:04.057Z,100.00
2019-02-18T00:24:24.598Z,100.00
2019-02-18T00:27:41.170Z,100.00
2019-02-18T00:30:48.305Z,100.00
2019-02-18T00:33:55.473Z,100.00
2019-02-18T00:37:02.716Z,100.00
2019-02-18T00:40:10.052Z,100.00
2019-02-18T00:43:26.763Z,100.00
2019-02-18T00:46:43.455Z,100.00
2019-02-18T00:49:50.582Z,100.00
2019-02-18T00:52:57.788Z,100.00
2019-02-18T00:56:05.206Z,100.00
2019-02-18T00:59:21.836Z,100.00
2019-02-18T01:02:29.030Z,100.00
2019-02-18T01:05:36.255Z,100.00
2019-02-18T01:08:43.458Z,100.00
2019-02-18T01:11:50.663Z,100.00
2019-02-18T01:14:57.879Z,100.00
2019-02-18T01:18:20.553Z,100.00
2019-02-18T01:21:27.858Z,100.00
2019-02-18T01:24:44.521Z,100.00
2019-02-18T01:27:51.793Z,100.00
2019-02-18T01:30:58.984Z,100.00
2019-02-18T01:34:06.187Z,100.00
2019-02-18T01:37:13.389Z,100.00
2019-02-18T01:40:20.610Z,100.00
2019-02-18T01:43:37.294Z,100.00
2019-02-18T01:46:44.544Z,100.00
2019-02-18T01:49:51.689Z,100.00
2019-02-18T01:52:58.915Z,100.00
2019-02-18T01:56:06.231Z,100.00
2019-02-18T01:59:13.408Z,100.00
2019-02-18T02:02:20.550Z,100.00
2019-02-18T02:05:27.953Z,100.00
2019-02-18T02:08:44.473Z,100.00
2019-02-18T02:11:51.695Z,100.00
2019-02-18T02:14:58.976Z,100.00
2019-02-18T02:18:06.181Z,100.00
2019-02-18T02:21:13.627Z,100.00
2019-02-18T02:24:20.365Z,100.00
2019-02-18T02:27:27.590Z,100.00
2019-02-18T02:30:34.839Z,100.00
2019-02-18T02:33:41.983Z,100.00
2019-02-18T02:36:49.181Z,100.00
2019-02-18T02:39:56.319Z,100.00
2019-02-18T02:43:03.524Z,100.00
2019-02-18T02:46:10.655Z,100.00
2019-02-18T02:49:17.789Z,100.00
2019-02-18T02:52:25.065Z,100.00
2019-02-18T02:55:32.187Z,100.00
2019-02-18T02:58:39.352Z,100.00
2019-02-18T03:01:46.485Z,100.00
2019-02-18T03:04:52.747Z,100.00
2019-02-18T03:08:20.004Z,100.00
2019-02-18T03:11:27.581Z,100.00
2019-02-18T03:14:34.883Z,100.00
2019-02-18T03:17:51.563Z,100.00
2019-02-18T03:20:58.865Z,100.00
2019-02-18T03:24:15.604Z,100.00
2019-02-18T03:27:22.836Z,100.00
2019-02-18T03:30:45.412Z,100.00
2019-02-18T03:33:59.924Z,100.00
2019-02-18T03:37:16.706Z,100.00
2019-02-18T03:40:33.121Z,100.00
2019-02-18T03:43:40.308Z,100.00
2019-02-18T03:46:57.016Z,100.00
2019-02-18T03:50:04.361Z,100.00
2019-02-18T03:53:11.560Z,100.00
2019-02-18T03:56:18.851Z,100.00
2019-02-18T03:59:35.510Z,100.00
2019-02-18T04:02:42.711Z,100.00
2019-02-18T04:05:59.347Z,100.00
2019-02-18T04:09:07.084Z,100.00
2019-02-18T04:12:23.480Z,100.00
2019-02-18T04:15:40.145Z,100.00
2019-02-18T04:18:46.225Z,100.00
2019-02-18T04:22:02.515Z,100.00
2019-02-18T04:25:09.996Z,100.00
2019-02-18T04:28:26.451Z,100.00
2019-02-18T04:31:33.575Z,100.00
2019-02-18T04:34:40.822Z,100.00
2019-02-18T04:37:47.947Z,100.00
2019-02-18T04:40:55.200Z,100.00
2019-02-18T04:44:02.342Z,100.00
2019-02-18T04:47:09.575Z,100.00
2019-02-18T04:50:16.845Z,100.00
2019-02-18T04:53:24.063Z,100.00
2019-02-18T04:56:31.272Z,100.00
2019-02-18T04:59:48.007Z,100.00
2019-02-18T05:02:55.210Z,100.00
2019-02-18T05:06:02.335Z,100.00
2019-02-18T05:09:09.473Z,100.00
2019-02-18T05:12:16.777Z,100.00
2019-02-18T05:15:24.046Z,100.00
2019-02-18T05:18:40.836Z,100.00
2019-02-18T05:21:47.964Z,100.00
2019-02-18T05:24:58.063Z,100.00
2019-02-18T05:28:05.280Z,100.00
2019-02-18T05:31:12.809Z,100.00
2019-02-18T05:34:29.598Z,100.00
2019-02-18T05:37:46.274Z,100.00
2019-02-18T05:40:53.414Z,100.00
2019-02-18T05:44:00.637Z,100.00
2019-02-18T05:47:07.874Z,100.00
2019-02-18T05:50:15.071Z,100.00
2019-02-18T05:53:22.366Z,100.00
2019-02-18T05:56:39.057Z,100.00
2019-02-18T05:59:46.287Z,100.00
2019-02-18T06:02:54.919Z,100.00
2019-02-18T06:06:02.187Z,100.00
2019-02-18T06:09:09.481Z,100.00
2019-02-18T06:12:16.599Z,100.00
2019-02-18T06:15:23.902Z,100.00
2019-02-18T06:18:30.317Z,100.00
2019-02-18T06:21:37.475Z,100.00
2019-02-18T06:24:44.701Z,100.00
2019-02-18T06:27:51.845Z,100.00
2019-02-18T06:30:59.483Z,100.00
2019-02-18T06:34:06.716Z,100.00
2019-02-18T06:37:13.885Z,100.00
2019-02-18T06:40:21.108Z,100.00
2019-02-18T06:43:28.307Z,100.00
2019-02-18T06:46:38.768Z,100.00
2019-02-18T06:49:45.901Z,100.00
2019-02-18T06:52:53.053Z,100.00
2019-02-18T06:56:00.245Z,100.00
2019-02-18T06:59:15.723Z,100.00
2019-02-18T07:02:29.864Z,100.00
2019-02-18T07:05:43.210Z,100.00
2019-02-18T07:09:12.181Z,100.00
2019-02-18T07:12:28.397Z,100.00
2019-02-18T07:15:34.303Z,100.00
2019-02-18T07:18:41.445Z,100.00
2019-02-18T07:21:48.656Z,100.00
2019-02-18T07:24:55.850Z,100.00
2019-02-18T07:28:03.060Z,100.00
2019-02-18T07:31:10.197Z,100.00
2019-02-18T07:34:17.494Z,100.00
2019-02-18T07:37:24.857Z,100.00
2019-02-18T07:40:32.092Z,100.00
2019-02-18T07:43:39.211Z,100.00
2019-02-18T07:46:46.349Z,100.00
2019-02-18T07:49:53.547Z,100.00
2019-02-18T07:53:00.686Z,100.00
2019-02-18T07:56:08.007Z,100.00
2019-02-18T07:59:15.339Z,100.00
2019-02-18T08:02:22.469Z,100.00
2019-02-18T08:05:29.743Z,100.00
2019-02-18T08:08:36.967Z,100.00
2019-02-18T08:11:44.262Z,100.00
2019-02-18T08:14:51.708Z,100.00
2019-02-18T08:17:58.931Z,100.00
2019-02-18T08:21:06.073Z,100.00
2019-02-18T08:24:13.508Z,100.00
2019-02-18T08:27:20.790Z,100.00
2019-02-18T08:30:37.552Z,100.00
2019-02-18T08:33:45.002Z,100.00
2019-02-18T08:37:01.466Z,100.00
2019-02-18T08:40:22.540Z,100.00
2019-02-18T08:43:36.505Z,100.00
2019-02-18T08:46:43.734Z,100.00
2019-02-18T08:49:50.975Z,100.00
2019-02-18T08:52:58.199Z,100.00
2019-02-18T08:56:07.367Z,100.00
2019-02-18T08:59:23.686Z,100.00
2019-02-18T09:02:30.907Z,100.00
2019-02-18T09:05:38.040Z,100.00
2019-02-18T09:08:45.262Z,100.00
2019-02-18T09:11:52.491Z,100.00
2019-02-18T09:14:59.733Z,100.00
2019-02-18T09:18:07.023Z,100.00
2019-02-18T09:21:24.143Z,100.00
2019-02-18T09:24:46.405Z,100.00
2019-02-18T09:27:53.533Z,100.00
2019-02-18T09:31:00.668Z,100.00
2019-02-18T09:34:07.959Z,100.00
2019-02-18T09:37:15.403Z,100.00
2019-02-18T09:40:22.632Z,100.00
2019-02-18T09:43:29.863Z,100.00
2019-02-18T09:46:37.206Z,100.00
2019-02-18T09:49:43.708Z,100.00
2019-02-18T09:52:50.937Z,100.00
2019-02-18T09:55:58.167Z,100.00
2019-02-18T09:59:05.367Z,100.00
2019-02-18T10:02:12.605Z,100.00
2019-02-18T10:05:19.863Z,100.00
2019-02-18T10:08:27.102Z,100.00
2019-02-18T10:11:34.443Z,100.00
2019-02-18T10:14:51.577Z,100.00
2019-02-18T10:17:58.750Z,100.00
2019-02-18T10:21:06.052Z,100.00
2019-02-18T10:24:22.759Z,100.00
2019-02-18T10:27:29.883Z,100.00
2019-02-18T10:30:37.094Z,100.00
2019-02-18T10:33:44.284Z,100.00
2019-02-18T10:36:51.424Z,100.00
2019-02-18T10:39:58.684Z,100.00
2019-02-18T10:43:05.910Z,100.00
2019-02-18T10:46:13.294Z,100.00
2019-02-18T10:49:22.133Z,100.00
2019-02-18T10:52:38.723Z,100.00
2019-02-18T10:55:45.870Z,100.00
2019-02-18T10:58:53.068Z,100.00
2019-02-18T11:02:00.283Z,100.00
2019-02-18T11:05:07.865Z,100.00
2019-02-18T11:08:24.376Z,100.00
2019-02-18T11:11:41.127Z,100.00
2019-02-18T11:14:57.890Z,100.00
2019-02-18T11:18:05.120Z,100.00
2019-02-18T11:21:22.111Z,100.00
2019-02-18T11:24:38.571Z,100.00
2019-02-18T11:27:45.778Z,100.00
2019-02-18T11:30:53.018Z,100.00
2019-02-18T11:34:00.267Z,100.00
2019-02-18T11:37:07.404Z,100.00
2019-02-18T11:40:15.286Z,100.00
2019-02-18T11:43:22.440Z,100.00
2019-02-18T11:46:29.585Z,100.00
2019-02-18T11:49:36.966Z,100.00
2019-02-18T11:52:44.280Z,100.00
2019-02-18T11:55:51.613Z,100.00
2019-02-18T11:58:58.979Z,100.00
2019-02-18T12:02:06.234Z,100.00
2019-02-18T12:05:14.232Z,100.00
2019-02-18T12:08:30.550Z,100.00
2019-02-18T12:14:56.199Z,100.00
2019-02-18T12:18:13.833Z,90.57
2019-02-18T12:21:21.571Z,95.45
2019-02-18T12:24:28.775Z,92.32
2019-02-18T12:27:35.903Z,72.73
2019-02-18T12:30:43.135Z,74.21
2019-02-18T12:33:51.969Z,73.20
2019-02-18T12:36:59.347Z,70.66
2019-02-18T12:40:05.615Z,70.40
2019-02-18T12:43:13.196Z,63.42
2019-02-18T12:46:20.329Z,61.52
2019-02-18T12:49:27.461Z,59.39
2019-02-18T12:52:34.595Z,59.90
2019-02-18T12:55:41.811Z,65.74
2019-02-18T12:58:54.634Z,69.63
2019-02-18T13:01:58.255Z,55.61
2019-02-18T13:05:06.646Z,65.46
2019-02-18T13:08:13.856Z,68.80
2019-02-18T13:11:20.995Z,71.89
2019-02-18T13:14:28.698Z,72.48
2019-02-18T13:17:35.913Z,79.23
2019-02-18T13:20:43.097Z,84.51
2019-02-18T13:23:50.471Z,77.75
2019-02-18T13:26:57.611Z,83.07
2019-02-18T13:30:03.452Z,72.30
2019-02-18T13:33:10.589Z,72.30
2019-02-18T13:36:17.782Z,71.15
2019-02-18T13:39:24.988Z,74.30
2019-02-18T13:42:32.136Z,81.16
2019-02-18T13:45:49.081Z,79.30
2019-02-18T13:49:05.864Z,87.49
2019-02-18T13:52:22.545Z,78.94
2019-02-18T13:55:29.742Z,75.68
2019-02-18T13:58:36.956Z,88.72
2019-02-18T14:01:43.791Z,83.99
2019-02-18T14:04:51.033Z,77.99
2019-02-18T14:07:58.309Z,76.08
2019-02-18T14:11:05.712Z,81.64
2019-02-18T14:14:13.035Z,85.36
2019-02-18T14:17:20.245Z,73.02
2019-02-18T14:20:27.391Z,75.27
2019-02-18T14:23:34.204Z,67.74
2019-02-18T14:26:41.420Z,70.75
2019-02-18T14:29:48.566Z,75.87
2019-02-18T14:32:55.743Z,71.33
2019-02-18T14:36:03.046Z,77.33
2019-02-18T14:39:20.038Z,69.49
2019-02-18T14:42:27.180Z,77.44
2019-02-18T14:45:34.428Z,64.14
2019-02-18T14:48:41.695Z,70.57
2019-02-18T14:51:48.911Z,75.83
2019-02-18T14:54:56.436Z,56.11
2019-02-18T14:58:13.317Z,56.13
2019-02-18T15:01:29.914Z,58.50
2019-02-18T15:04:46.642Z,63.57
2019-02-18T15:07:53.846Z,61.32
2019-02-18T15:11:10.656Z,65.44
2019-02-18T15:14:27.545Z,59.59
2019-02-18T15:17:44.385Z,57.85
2019-02-18T15:20:51.518Z,60.05
2019-02-18T15:23:58.661Z,56.30
2019-02-18T15:27:05.958Z,60.89
2019-02-18T15:30:22.872Z,61.03
2019-02-18T15:33:39.514Z,71.68
2019-02-18T15:36:56.567Z,66.68
2019-02-18T15:40:04.459Z,67.79
2019-02-18T15:43:11.733Z,60.70
2019-02-18T15:46:18.929Z,62.81
2019-02-18T15:49:26.239Z,64.01
2019-02-18T15:52:33.457Z,68.17
2019-02-18T15:55:41.053Z,74.94
2019-02-18T15:58:48.551Z,73.75
2019-02-18T16:01:55.844Z,73.75
2019-02-18T16:05:12.774Z,72.80
2019-02-18T16:08:29.465Z,70.90
2019-02-18T16:11:36.667Z,73.56
2019-02-18T16:14:53.468Z,74.59
2019-02-18T16:18:10.257Z,82.33
2019-02-18T16:21:17.386Z,84.72
2019-02-18T16:24:24.619Z,86.25
2019-02-18T16:27:41.380Z,87.92
2019-02-18T16:30:58.293Z,88.84
2019-02-18T16:34:15.088Z,92.30
2019-02-18T16:37:22.215Z,87.74
2019-02-18T16:40:29.458Z,92.12
2019-02-18T16:43:36.590Z,96.43
2019-02-18T16:46:43.823Z,98.80
2019-02-18T16:50:00.893Z,95.16
2019-02-18T16:53:17.367Z,100.00
2019-02-18T16:56:24.597Z,97.66
2019-02-18T16:59:31.904Z,100.00
2019-02-18T17:02:48.603Z,100.00
2019-02-18T17:05:55.739Z,98.91
2019-02-18T17:09:05.403Z,100.00
2019-02-18T17:12:12.559Z,100.00
2019-02-18T17:15:19.792Z,100.00
2019-02-18T17:18:27.102Z,98.79
2019-02-18T17:21:34.329Z,100.00
2019-02-18T17:24:41.480Z,100.00
2019-02-18T17:27:48.725Z,100.00
2019-02-18T17:30:55.979Z,100.00
2019-02-18T17:34:03.291Z,100.00
2019-02-18T17:37:10.508Z,100.00
2019-02-18T17:40:17.726Z,100.00
2019-02-18T17:43:24.865Z,100.00
2019-02-18T17:46:31.987Z,100.00
2019-02-18T17:49:39.119Z,100.00
2019-02-18T17:52:46.939Z,100.00
2019-02-18T17:55:54.200Z,100.00
2019-02-18T17:59:01.329Z,100.00
2019-02-18T18:02:08.717Z,100.00
2019-02-18T18:05:25.469Z,100.00
2019-02-18T18:08:42.114Z,100.00
2019-02-18T18:11:49.395Z,100.00
2019-02-18T18:15:06.506Z,100.00
2019-02-18T18:18:22.858Z,100.00
2019-02-18T18:21:31.060Z,100.00
2019-02-18T18:24:38.325Z,100.00
2019-02-18T18:27:45.619Z,100.00
2019-02-18T18:30:52.739Z,100.00
2019-02-18T18:33:59.325Z,100.00
2019-02-18T18:37:15.633Z,100.00
2019-02-18T18:40:22.760Z,100.00
2019-02-18T18:43:33.795Z,100.00
2019-02-18T18:46:38.887Z,100.00
2019-02-18T18:49:46.086Z,100.00
2019-02-18T18:52:53.394Z,100.00
2019-02-18T18:56:10.093Z,100.00
2019-02-18T18:59:17.290Z,100.00
2019-02-18T19:02:34.060Z,100.00
2019-02-18T19:05:51.148Z,100.00
2019-02-18T19:09:07.825Z,100.00
2019-02-18T19:12:30.430Z,100.00
2019-02-18T19:15:37.714Z,100.00
2019-02-18T19:18:54.481Z,100.00
2019-02-18T19:22:02.082Z,100.00
2019-02-18T19:25:18.383Z,100.00
2019-02-18T19:28:35.145Z,100.00
2019-02-18T19:31:42.274Z,100.00
2019-02-18T19:34:49.495Z,100.00
2019-02-18T19:37:56.863Z,100.00
2019-02-18T19:41:13.719Z,100.00
2019-02-18T19:44:22.261Z,100.00
2019-02-18T19:47:29.463Z,100.00
2019-02-18T19:50:46.245Z,100.00
2019-02-18T19:53:53.647Z,100.00
2019-02-18T19:57:11.921Z,100.00
2019-02-18T20:00:19.306Z,100.00
2019-02-18T20:03:35.757Z,100.00
2019-02-18T20:06:43.483Z,100.00
2019-02-18T20:09:59.730Z,100.00
2019-02-18T20:13:06.937Z,100.00
2019-02-18T20:16:14.247Z,100.00
2019-02-18T20:19:30.885Z,100.00
2019-02-18T20:22:47.709Z,100.00
2019-02-18T20:26:04.432Z,100.00
2019-02-18T20:29:12.339Z,100.00
2019-02-18T20:32:19.911Z,100.00
2019-02-18T20:35:27.036Z,100.00
2019-02-18T20:38:34.256Z,100.00
2019-02-18T20:41:51.689Z,100.00
2019-02-18T20:45:09.420Z,100.00
2019-02-18T20:48:16.667Z,100.00
2019-02-18T20:51:24.044Z,100.00
2019-02-18T20:54:31.376Z,100.00
2019-02-18T20:57:38.641Z,100.00
2019-02-18T21:00:45.846Z,100.00
2019-02-18T21:03:53.448Z,100.00
2019-02-18T21:07:10.021Z,100.00
2019-02-18T21:10:17.375Z,100.00
2019-02-18T21:13:33.998Z,100.00
2019-02-18T21:16:50.705Z,100.00
2019-02-18T21:20:07.989Z,100.00
2019-02-18T21:23:30.237Z,100.00
2019-02-18T21:26:37.363Z,100.00
2019-02-18T21:29:44.606Z,100.00
2019-02-18T21:32:51.737Z,100.00
2019-02-18T21:35:58.867Z,100.00
2019-02-18T21:39:11.650Z,100.00
2019-02-18T21:42:18.853Z,100.00
2019-02-18T21:45:26.293Z,100.00
2019-02-18T21:48:33.524Z,100.00
2019-02-18T21:51:40.739Z,100.00
2019-02-18T21:54:47.871Z,100.00
2019-02-18T21:57:56.551Z,100.00
2019-02-18T22:01:03.764Z,100.00
2019-02-18T22:04:11.008Z,100.00
2019-02-18T22:07:18.215Z,100.00
2019-02-18T22:10:25.345Z,100.00
2019-02-18T22:13:32.492Z,100.00
2019-02-18T22:16:39.706Z,100.00
2019-02-18T22:19:46.606Z,100.00
2019-02-18T22:23:03.072Z,100.00
2019-02-18T22:26:10.283Z,100.00
2019-02-18T22:29:17.415Z,100.00
2019-02-18T22:32:37.865Z,100.00
2019-02-18T22:35:44.998Z,100.00
2019-02-18T22:38:52.379Z,100.00
2019-02-18T22:42:09.068Z,100.00
2019-02-18T22:45:25.486Z,100.00
2019-02-18T22:48:32.761Z,100.00
2019-02-18T22:51:39.958Z,100.00
2019-02-18T22:54:47.090Z,100.00
2019-02-18T22:57:54.626Z,100.00
2019-02-18T23:01:11.666Z,100.00
2019-02-18T23:04:18.884Z,100.00
2019-02-18T23:07:25.287Z,100.00
2019-02-18T23:10:42.293Z,100.00
2019-02-18T23:13:59.052Z,100.00
2019-02-18T23:17:06.234Z,100.00
2019-02-18T23:20:13.419Z,100.00
2019-02-18T23:23:20.567Z,100.00
2019-02-18T23:26:27.706Z,100.00
2019-02-18T23:29:35.372Z,100.00
2019-02-18T23:32:43.702Z,100.00
2019-02-18T23:36:00.643Z,100.00
2019-02-18T23:39:08.622Z,100.00
2019-02-18T23:42:15.853Z,100.00
2019-02-18T23:45:23.218Z,100.00
2019-02-18T23:48:30.348Z,100.00
2019-02-18T23:51:37.504Z,100.00
2019-02-18T23:54:44.641Z,100.00
2019-02-18T23:57:51.869Z,100.00
